Motte Rimrock Reserve, California Weather observations

Data are for 10 minute period ending at time listed.
 Day   Time   Solar   Ave.   Ave.  Ave.  Vector  Max.   Baro.   Total    
  of    of     Rad.   Air    Rel.  Wind   Wind   Wind  Press.  Precip.   
Year   Day            Temp.  Hum.  Speed  Dir.   Gust                    
2015   (PST)  Kw/m2    F      %     mph   deg.    mph    mb.     in.     
-------------------------------------------------------------------------
 212   20:40   0.00   77.4    52    8.6   320    10.5   948.5    0.00 
 212   20:50   0.00   77.2    53    8.7   322     9.9   948.4    0.00 
 212   21:00   0.00   76.9    53    8.2   323    10.7   948.5    0.00 
 212   21:10   0.00   76.7    54    9.5   315    12.4   948.4    0.00 
 212   21:20   0.00   76.4    55   10.9   307    13.5   948.3    0.00 
 212   21:30   0.00   75.9    56   10.5   306    13.7   948.3    0.00 
 212   21:40   0.00   75.3    58    8.5   308    10.9   948.3    0.00 
 212   21:50   0.00   75.0    59    7.9   302    11.0   948.4    0.00 
 212   22:00   0.00   74.6    61    6.3   313     8.4   948.4    0.00 
 212   22:10   0.00   73.9    62    6.2   315     7.4   948.4    0.00 
 212   22:20   0.00   73.5    63    6.2   314     7.8   948.4    0.00 
 212   22:30   0.00   73.0    65    7.1   318     8.8   948.3    0.00 
 212   22:40   0.00   73.1    65    7.9   308     9.2   948.4    0.00 
 212   22:50   0.00   73.0    65    8.2   298     9.5   948.5    0.00 
 212   23:00   0.00   72.6    65    7.4   303     8.9   948.5    0.00 
 212   23:10   0.00   72.6    66    7.1   301     8.5   948.5    0.00 
 212   23:20   0.00   72.3    67    7.0   299     8.3   948.5    0.00 
 212   23:30   0.00   72.1    67    6.4   302     7.4   948.5    0.00 
 212   23:40   0.00   71.8    68    6.4   315     7.7   948.5    0.00 
 212   23:50   0.00   71.8    67    6.4   310     7.7   948.5    0.00 
 213    0:00   0.00   71.5    67    4.6   330     6.4   948.5    0.00 
 213    0:10   0.00   71.3    66    6.0   318     7.2   948.4    0.00 
 213    0:20   0.00   71.1    65    6.5   312     8.8   948.3    0.00 
 213    0:30   0.00   71.1    66    6.2   307     8.1   948.3    0.00 
 213    0:40   0.00   70.7    68    5.5   310     7.7   948.3    0.00 
 213    0:50   0.00   70.2    70    4.6   321     6.3   948.4    0.00 
 213    1:00   0.00   69.8    72    4.2   319     5.8   948.4    0.00 
 213    1:10   0.00   69.4    74    3.2   307     4.5   948.3    0.00 
 213    1:20   0.00   68.8    75    2.5   284     3.9   948.2    0.00 
 213    1:30   0.00   68.8    75    2.1   305     2.9   948.2    0.00 
 213    1:40   0.00   69.8    72    2.1   341     4.2   948.2    0.00 
 213    1:50   0.00   69.2    74    5.2   308     7.2   948.2    0.00 
 213    2:00   0.00   68.4    78    5.5   309     6.9   948.2    0.00 
 213    2:10   0.00   68.3    78    5.6   306     6.9   948.0    0.00 
 213    2:20   0.00   68.3    77    4.9   312     6.8   948.0    0.00 
 213    2:30   0.00   67.9    78    3.1   325     4.7   948.1    0.00 
 213    2:40   0.00   67.6    79    3.5   327     4.4   948.1    0.00 
 213    2:50   0.00   67.3    78    4.1   316     5.1   947.9    0.00 
 213    3:00   0.00   67.2    77    5.9   311     7.5   947.9    0.00 
 213    3:10   0.00   67.4    75    5.7   314     7.3   947.9    0.00 
 213    3:20   0.00   67.1    76    5.9   316     7.0   947.8    0.00 
 213    3:30   0.00   67.1    76    5.6   309     7.0   947.8    0.00 
 213    3:40   0.00   67.1    76    4.0   309     4.9   947.7    0.00 
 213    3:50   0.00   67.1    75    3.1   303     4.0   947.6    0.00 
 213    4:00   0.00   67.4    74    2.7   316     4.1   947.6    0.00 
 213    4:10   0.00   67.7    72    2.0    19     4.1   947.6    0.00 
 213    4:20   0.00   67.3    75    3.0    63     4.1   947.7    0.00 
 213    4:30   0.00   66.9    78    2.1    40     3.4   947.7    0.00 
 213    4:40   0.00   66.1    79    3.5   325     4.7   947.7    0.00 
 213    4:50   0.00   65.7    80    4.1   347     5.3   947.9    0.00 
 213    5:00   0.00   65.1    82    5.8   312     6.9   947.9    0.00 
 213    5:10   0.00   65.4    84    6.3   305     7.7   947.9    0.00 
 213    5:20   0.00   65.5    84    7.2   310     8.7   947.9    0.00 
 213    5:30   0.02   65.8    83    7.6   312     8.7   948.0    0.00 
 213    5:40   0.03   65.8    83    7.6   307     9.7   948.1    0.00 
 213    5:50   0.07   66.6    76    7.2   309     9.2   948.3    0.00 
 213    6:00   0.10   67.6    71    6.8   315     8.8   948.3    0.00 
 213    6:10   0.13   68.3    68    6.9   313    10.3   948.4    0.00 
 213    6:20   0.17   68.6    68    6.6   315     9.2   948.6    0.00 
 213    6:30   0.20   68.9    68    6.8   305     9.3   948.5    0.00 
 213    6:40   0.23   69.2    67    7.3   306     8.9   948.6    0.00 
 213    6:50   0.27   70.0    66    6.2   308     7.8   948.7    0.00 
 213    7:00   0.30   70.6    64    5.6   316     7.3   948.8    0.00 
 213    7:10   0.34   71.3    63    5.7   323     7.7   948.8    0.00 
 213    7:20   0.37   71.7    64    4.7   321     6.8   948.8    0.00 
 213    7:30   0.41   72.8    63    3.6   328     5.0   948.8    0.00 
 213    7:40   0.45   73.6    62    3.5   348     5.3   948.7    0.00 
 213    7:50   0.48   74.0    61    3.6   323     5.8   948.6    0.00 
 213    8:00   0.52   75.5    57    1.7   304     3.9   948.5    0.00 
 213    8:10   0.55   76.7    55    2.1   315     5.6   948.4    0.00 
 213    8:20   0.58   77.0    54    3.1   275     5.6   948.4    0.00 
 213    8:30   0.61   77.7    52    2.5   261     4.7   948.4    0.00 
 213    8:40   0.64   79.1    49    2.1   272     4.5   948.3    0.00 
 213    8:50   0.68   79.7    47    2.0   299     4.1   948.2    0.00 
 213    9:00   0.71   80.4    46    2.9   217     6.6   948.1    0.00 
 213    9:10   0.73   80.7    45    3.5   293     7.0   947.9    0.00 
 213    9:20   0.76   82.5    42    2.3   228     5.6   947.8    0.00 
 213    9:30   0.78   82.5    41    3.7   216     6.6   947.8    0.00 
 213    9:40   0.81   83.9    39    2.6   256     6.4   947.7    0.00 
 213    9:50   0.83   83.7    39    4.9   296     9.2   947.6    0.00 
 213   10:00   0.85   83.6    40    5.4   307    10.7   947.5    0.00 
 213   10:10   0.87   84.1    40    7.4   295    11.8   947.4    0.00 
 213   10:20   0.89   83.9    41    5.6   324    10.4   947.4    0.00 
 213   10:30   0.90   85.0    40    6.1   303    10.2   947.3    0.00 
 213   10:40   0.92   85.9    39    6.0   300    11.1   947.3    0.00 
 213   10:50   0.93   86.0    39    6.7   326    11.8   947.2    0.00 
 213   11:00   0.87   86.3    38    8.4   309    12.5   947.2    0.00 
 213   11:10   0.95   86.6    38    8.9   312    11.7   947.1    0.00 
 213   11:20   0.93   86.8    38    9.8   311    15.3   947.0    0.00 
 213   11:30   0.83   86.9    37   10.5   300    14.8   946.9    0.00 
 213   11:40   0.96   86.4    38   11.1   299    16.2   946.9    0.00 
 213   11:50   0.97   87.5    37   11.4   309    16.1   946.7    0.00 
 213   12:00   0.95   87.2    38   11.4   307    15.7   946.6    0.00 
 213   12:10   1.01   88.1    37   11.1   297    16.7   946.5    0.00 
 213   12:20   1.02   88.2    37   10.6   299    15.3   946.4    0.00 
 213   12:30   0.85   88.6    35   10.6   304    14.2   946.3    0.00 
 213   12:40   0.69   88.6    35   11.6   299    15.1   946.2    0.00 
 213   12:50   0.98   89.5    33   11.7   300    16.3   946.1    0.00 
 213   13:00   1.01   90.6    32   12.1   300    17.1   945.9    0.00 
 213   13:10   0.93   90.6    32   12.1   313    16.4   945.9    0.00 
 213   13:20   0.79   90.7    32   12.4   319    18.0   945.8    0.00 
 213   13:30   0.79   90.6    32   12.1   314    17.5   945.8    0.00 
 213   13:40   0.59   90.7    31   11.3   313    15.7   945.7    0.00 
 213   13:50   0.84   90.6    31   11.4   318    16.1   945.7    0.00 
 213   14:00   0.93   91.9    30   11.5   308    15.7   945.5    0.00 
 213   14:10   0.86   91.9    30   10.9   303    16.9   945.6    0.00 
 213   14:20   0.73   91.3    30   10.8   302    16.3   945.6    0.00 
 213   14:30   0.33   90.6    30   10.0   312    14.8   945.6    0.00 
 213   14:40   0.26   89.9    30   10.9   298    14.5   945.4    0.00 
 213   14:50   0.23   89.6    30    9.7   298    13.2   945.3    0.00 
 213   15:00   0.23   89.4    29    9.9   309    14.2   945.2    0.00 
 213   15:10   0.23   89.1    29   10.3   300    14.9   945.1    0.00 
 213   15:20   0.22   88.4    31   11.2   305    14.6   945.1    0.00 
 213   15:30   0.22   87.5    32   12.3   309    15.0   945.0    0.00 
 213   15:40   0.64   88.1    32   12.3   310    17.4   945.0    0.00 
 213   15:50   0.69   89.2    31   12.5   313    17.0   945.0    0.00 
 213   16:00   0.67   89.3    30   11.4   314    16.0   945.0    0.00 
 213   16:10   0.60   89.5    31   12.3   310    17.3   945.0    0.00 
 213   16:20   0.54   88.4    32   12.6   310    16.3   945.0    0.00 
 213   16:30   0.52   88.4    32   13.8   321    17.5   944.9    0.00 
 213   16:40   0.47   88.0    32   13.0   326    16.3   944.9    0.00 
 213   16:50   0.42   87.6    32   12.9   304    17.2   944.9    0.00 
 213   17:00   0.37   86.8    32   13.2   312    16.5   944.8    0.00 
 213   17:10   0.34   86.4    32   12.8   302    16.8   944.8    0.00 
 213   17:20   0.30   86.3    31   12.1   308    15.2   944.8    0.00 
 213   17:30   0.24   85.6    32   11.5   306    15.1   944.9    0.00 
 213   17:40   0.21   85.0    34   12.4   302    16.4   944.9    0.00 
 213   17:50   0.19   84.5    34   12.4   310    16.3   944.9    0.00 
 213   18:00   0.15   83.6    38   11.1   310    14.5   945.0    0.00 
 213   18:10   0.12   83.2    39   10.1   301    12.8   945.2    0.00 
 213   18:20   0.08   82.3    37   12.5   310    15.0   945.3    0.00 
 213   18:30   0.06   81.2    41   12.0   308    14.2   945.4    0.00 
 213   18:40   0.03   80.0    44   12.3   306    15.5   945.5    0.00 
 213   18:50   0.02   79.1    45   11.8   303    14.6   945.6    0.00 
 213   19:00   0.01   78.2    47   10.6   302    13.9   945.7    0.00 
 213   19:10   0.01   77.6    49   10.5   303    13.2   945.9    0.00 
 213   19:20   0.00   77.3    46   10.2   303    12.9   946.0    0.00 
 213   19:30   0.00   76.8    48    8.9   307    11.5   946.1    0.00 
 213   19:40   0.00   76.6    50    5.3   321     9.3   946.2    0.00 
 213   19:50   0.00   76.4    50    1.7   321     4.1   946.4    0.00 
 213   20:00   0.00   76.0    52    3.7   336     6.1   946.5    0.00 
 213   20:10   0.00   75.6    53    4.4   333     6.4   946.6    0.00 
 213   20:20   0.00   75.1    55    3.6   336     5.4   946.6    0.00 
 213   20:30   0.00   74.8    55    3.1   325     4.7   946.7    0.00 

Return to Motte Rimrock Reserve graphs page.


Western Regional Climate Center,wrcc@dri.edu